Time;durP1;ratioP1;P1;durP2;ratioP2;P2;SDS_P1;SDS_P2;PMS_P1;PMS_P2;Temp;Humidity;BMP_temperature;BMP_pressure;BME280_temperature;BME280_humidity;BME280_pressure;Samples;Min_cycle;Max_cycle;Signal;HPM_P1;HPM_P2
2021/07/07 00:00:17;;;;;;;12.10;3.00;;;16.50;99.90;;;;;;5027489;28;20272;-79
2021/07/07 00:02:44;;;;;;;9.43;2.80;;;16.50;99.90;;;;;;5027111;28;20218;-84
2021/07/07 00:05:14;;;;;;;9.20;2.83;;;16.50;99.90;;;;;;5024064;28;20202;-88
2021/07/07 00:07:42;;;;;;;9.43;2.77;;;16.50;99.90;;;;;;5030091;28;20203;-90
2021/07/07 00:10:11;;;;;;;8.13;2.90;;;16.50;99.90;;;;;;5029899;28;20205;-86
2021/07/07 00:12:38;;;;;;;10.17;3.80;;;16.50;99.90;;;;;;5020414;28;20203;-87
2021/07/07 00:15:10;;;;;;;13.50;2.63;;;16.50;99.90;;;;;;5008773;28;20246;-80
2021/07/07 00:17:38;;;;;;;9.53;2.37;;;16.40;99.90;;;;;;5010127;28;20199;-88
2021/07/07 00:20:06;;;;;;;12.23;3.33;;;16.40;99.90;;;;;;5007513;28;20235;-80
2021/07/07 00:22:33;;;;;;;8.80;2.63;;;16.30;99.90;;;;;;5015067;28;20233;-82
2021/07/07 00:25:00;;;;;;;13.97;3.33;;;16.30;99.90;;;;;;5023111;28;20660;-81
2021/07/07 00:27:27;;;;;;;7.87;2.30;;;16.20;99.90;;;;;;5023185;28;20889;-83
2021/07/07 00:29:55;;;;;;;8.60;2.43;;;16.20;99.90;;;;;;5015210;28;20215;-82
2021/07/07 00:32:23;;;;;;;9.03;2.93;;;16.20;99.90;;;;;;5003529;28;20508;-83
2021/07/07 00:34:50;;;;;;;5.83;2.37;;;16.20;99.90;;;;;;5004167;28;20206;-91
2021/07/07 00:37:17;;;;;;;9.17;2.20;;;16.10;99.90;;;;;;5005859;28;20214;-90
2021/07/07 00:39:44;;;;;;;5.53;2.30;;;16.10;99.90;;;;;;5004467;28;20828;-82
2021/07/07 00:42:11;;;;;;;9.97;2.87;;;16.00;99.90;;;;;;5004361;28;20203;-81
2021/07/07 00:44:38;;;;;;;7.50;2.47;;;16.00;99.90;;;;;;5005982;28;20199;-86
2021/07/07 00:47:05;;;;;;;6.47;2.10;;;15.90;99.90;;;;;;5007981;28;20869;-82
2021/07/07 00:49:33;;;;;;;8.87;2.37;;;15.90;99.90;;;;;;5005850;28;20233;-82
2021/07/07 00:52:02;;;;;;;3.77;2.00;;;15.90;99.90;;;;;;5022143;28;20209;-89
2021/07/07 00:54:31;;;;;;;6.40;2.30;;;15.90;99.90;;;;;;5026016;28;20209;-82
2021/07/07 00:57:00;;;;;;;8.40;2.20;;;15.80;99.90;;;;;;5019077;28;20237;-83
2021/07/07 00:59:28;;;;;;;5.60;2.57;;;15.70;99.90;;;;;;5005745;28;20632;-86
2021/07/07 01:01:56;;;;;;;6.63;2.60;;;15.70;99.90;;;;;;5004374;28;20546;-81
2021/07/07 01:04:23;;;;;;;5.00;2.30;;;15.60;99.90;;;;;;5021630;28;20218;-88
2021/07/07 01:06:51;;;;;;;6.03;2.37;;;15.60;99.90;;;;;;5025346;28;20967;-84
2021/07/07 01:09:18;;;;;;;4.27;2.20;;;15.50;99.90;;;;;;5028114;28;20201;-82
2021/07/07 01:11:45;;;;;;;10.83;2.90;;;15.50;99.90;;;;;;5030974;28;20234;-83
2021/07/07 01:14:15;;;;;;;6.77;2.20;;;15.50;99.90;;;;;;5029746;28;20199;-79
2021/07/07 01:16:43;;;;;;;6.87;2.23;;;15.40;99.90;;;;;;5030061;28;20193;-81
2021/07/07 01:19:12;;;;;;;12.00;3.30;;;15.40;99.90;;;;;;5013536;28;20237;-86
2021/07/07 01:21:45;;;;;;;4.77;2.10;;;15.40;99.90;;;;;;5008396;28;20210;-79
2021/07/07 01:24:12;;;;;;;7.53;2.83;;;15.40;99.90;;;;;;5008168;28;20183;-79
2021/07/07 01:26:39;;;;;;;6.17;2.63;;;15.30;99.90;;;;;;5009106;28;20241;-79
2021/07/07 01:29:06;;;;;;;7.43;2.73;;;15.30;99.90;;;;;;5013713;28;20215;-81
2021/07/07 01:31:33;;;;;;;6.60;2.30;;;15.20;99.90;;;;;;5028488;28;20483;-81
2021/07/07 01:34:00;;;;;;;4.30;2.27;;;15.20;99.90;;;;;;5027134;28;20623;-80
2021/07/07 01:36:27;;;;;;;4.83;1.97;;;15.20;99.90;;;;;;5026690;28;20201;-90
2021/07/07 01:38:55;;;;;;;7.07;2.33;;;15.10;99.90;;;;;;5027172;28;20210;-86
2021/07/07 01:41:24;;;;;;;5.47;2.27;;;15.10;99.90;;;;;;5025504;28;20520;-81
2021/07/07 01:43:51;;;;;;;6.57;2.43;;;15.10;99.90;;;;;;5025675;28;20240;-80
2021/07/07 01:46:18;;;;;;;6.50;2.43;;;15.00;99.90;;;;;;5017665;28;20215;-87
2021/07/07 01:48:45;;;;;;;10.77;2.30;;;15.00;99.90;;;;;;5012412;28;20203;-90
2021/07/07 01:51:12;;;;;;;5.47;2.53;;;15.00;99.90;;;;;;5031213;28;20205;-84
2021/07/07 01:53:38;;;;;;;3.77;2.17;;;14.90;99.90;;;;;;5031552;28;20203;-87
2021/07/07 01:56:07;;;;;;;3.20;2.03;;;14.90;99.90;;;;;;5030537;28;20234;-90
2021/07/07 01:58:34;;;;;;;7.00;2.30;;;14.80;99.90;;;;;;5030566;28;20614;-91
2021/07/07 02:01:00;;;;;;;6.70;2.80;;;14.80;99.90;;;;;;5030090;28;20218;-87
2021/07/07 02:03:27;;;;;;;5.83;2.60;;;14.80;99.90;;;;;;5030862;28;20739;-91
2021/07/07 02:05:55;;;;;;;7.23;3.47;;;14.70;99.90;;;;;;5018694;28;20311;-87
2021/07/07 02:08:22;;;;;;;8.10;2.40;;;14.70;99.90;;;;;;5010689;28;20214;-85
2021/07/07 02:10:49;;;;;;;6.77;2.30;;;14.70;99.90;;;;;;5010073;28;20199;-87
2021/07/07 02:13:17;;;;;;;9.83;2.83;;;14.70;99.90;;;;;;5011186;28;20211;-87
2021/07/07 02:15:44;;;;;;;5.73;2.37;;;14.70;99.90;;;;;;5010430;28;20230;-88
2021/07/07 02:18:11;;;;;;;9.70;2.70;;;14.70;99.90;;;;;;5009687;28;20203;-81
2021/07/07 02:20:40;;;;;;;6.67;2.40;;;14.70;99.90;;;;;;5021915;28;20226;-83
2021/07/07 02:23:08;;;;;;;5.53;2.87;;;14.70;99.90;;;;;;5028724;28;20912;-89
2021/07/07 02:25:37;;;;;;;10.50;3.10;;;14.60;99.90;;;;;;5030432;28;20292;-88
2021/07/07 02:28:06;;;;;;;6.17;2.67;;;14.60;99.90;;;;;;5030217;28;20697;-85
2021/07/07 02:30:37;;;;;;;11.43;2.67;;;14.60;99.90;;;;;;5029876;28;20234;-85
2021/07/07 02:33:08;;;;;;;6.63;2.57;;;14.60;99.90;;;;;;5029066;28;20821;-83
2021/07/07 02:35:37;;;;;;;5.70;2.37;;;14.60;99.90;;;;;;5029499;28;20214;-89
2021/07/07 02:38:07;;;;;;;6.00;2.77;;;14.60;99.90;;;;;;5027600;28;20788;-88
2021/07/07 02:40:34;;;;;;;5.80;2.43;;;14.60;99.90;;;;;;5028360;28;20760;-92
2021/07/07 02:43:02;;;;;;;5.47;2.63;;;14.50;99.90;;;;;;5029085;28;20210;-85
2021/07/07 02:45:30;;;;;;;4.77;2.43;;;14.50;99.90;;;;;;5029354;28;20195;-84
2021/07/07 02:47:59;;;;;;;7.27;3.07;;;14.50;99.90;;;;;;5028521;28;20203;-81
2021/07/07 02:50:26;;;;;;;6.60;2.33;;;14.50;99.90;;;;;;5009113;28;20203;-88
2021/07/07 02:52:54;;;;;;;5.73;3.00;;;14.40;99.90;;;;;;5006815;28;20689;-84
2021/07/07 02:55:22;;;;;;;4.50;2.57;;;14.40;99.90;;;;;;5010760;28;20210;-86
2021/07/07 02:57:58;;;;;;;5.40;2.37;;;14.40;99.90;;;;;;5028198;28;20253;-90
2021/07/07 03:00:29;;;;;;;10.07;3.10;;;14.40;99.90;;;;;;4926766;29;20228;-81
2021/07/07 03:02:59;;;;;;;8.60;2.97;;;14.40;99.90;;;;;;4926351;28;20224;-79
2021/07/07 03:05:26;;;;;;;7.50;3.27;;;14.30;99.90;;;;;;4926508;28;20229;-87
2021/07/07 03:07:53;;;;;;;7.73;2.90;;;14.30;99.90;;;;;;4926861;29;20212;-85
2021/07/07 03:10:19;;;;;;;6.37;2.90;;;14.30;99.90;;;;;;4926408;29;20218;-85
2021/07/07 03:12:46;;;;;;;4.83;3.00;;;14.40;99.90;;;;;;4984938;28;20215;-82
2021/07/07 03:15:13;;;;;;;9.17;3.47;;;14.40;99.90;;;;;;5010702;28;20210;-91
2021/07/07 03:17:40;;;;;;;10.43;3.30;;;14.40;99.90;;;;;;5011000;28;20198;-89
2021/07/07 03:20:10;;;;;;;5.20;3.47;;;14.40;99.90;;;;;;5011460;28;20702;-91
2021/07/07 03:22:38;;;;;;;6.70;2.90;;;14.40;99.90;;;;;;5022636;28;20630;-89
2021/07/07 03:25:06;;;;;;;7.10;3.37;;;14.40;99.90;;;;;;5030136;28;20535;-84
2021/07/07 03:27:33;;;;;;;6.80;3.57;;;14.40;99.90;;;;;;5029191;28;20202;-85
2021/07/07 03:30:00;;;;;;;8.47;3.60;;;14.30;99.90;;;;;;5031204;28;20206;-80
2021/07/07 03:32:27;;;;;;;11.73;3.80;;;14.30;99.90;;;;;;5030795;28;20206;-90
2021/07/07 03:34:54;;;;;;;8.73;3.70;;;14.30;99.90;;;;;;5030546;28;20206;-82
2021/07/07 03:37:22;;;;;;;9.33;4.00;;;14.30;99.90;;;;;;5026020;28;20202;-80
2021/07/07 03:39:50;;;;;;;6.83;3.63;;;14.30;99.90;;;;;;5020560;28;20211;-83
2021/07/07 03:42:17;;;;;;;10.00;3.73;;;14.30;99.90;;;;;;5005917;28;20203;-88
2021/07/07 03:44:44;;;;;;;7.80;3.80;;;14.30;99.90;;;;;;5009611;28;20249;-87
2021/07/07 03:47:11;;;;;;;7.23;3.90;;;14.30;99.90;;;;;;5025691;28;20202;-81
2021/07/07 03:49:37;;;;;;;8.10;3.83;;;14.30;99.90;;;;;;5026897;28;20572;-88
2021/07/07 03:52:05;;;;;;;6.43;4.20;;;14.30;99.90;;;;;;5027401;28;20210;-93
2021/07/07 03:54:34;;;;;;;6.50;4.27;;;14.30;99.90;;;;;;5022482;28;20297;-82
2021/07/07 03:57:01;;;;;;;7.23;3.53;;;14.30;99.90;;;;;;5005221;28;20239;-83
2021/07/07 03:59:28;;;;;;;6.67;3.73;;;14.30;99.90;;;;;;5005805;28;20226;-85
2021/07/07 04:01:55;;;;;;;6.17;3.40;;;14.30;99.90;;;;;;5005479;28;20223;-82
2021/07/07 04:04:21;;;;;;;8.67;3.67;;;14.30;99.90;;;;;;5016182;28;20214;-80
2021/07/07 04:06:48;;;;;;;7.73;3.77;;;14.30;99.90;;;;;;5026174;28;20203;-81
2021/07/07 04:09:19;;;;;;;7.40;3.50;;;14.30;99.90;;;;;;5025753;28;20194;-81
2021/07/07 04:11:47;;;;;;;8.57;3.30;;;14.40;99.90;;;;;;5025221;28;20293;-87
2021/07/07 04:14:15;;;;;;;10.37;3.13;;;14.40;99.90;;;;;;5019931;28;20219;-81
2021/07/07 04:16:42;;;;;;;3.97;3.30;;;14.50;99.90;;;;;;5009709;28;20280;-81
2021/07/07 04:19:09;;;;;;;7.90;3.67;;;14.50;99.90;;;;;;5028515;28;20219;-82
2021/07/07 04:21:35;;;;;;;12.00;3.90;;;14.50;99.90;;;;;;5026484;28;20218;-80
2021/07/07 04:24:02;;;;;;;8.70;3.57;;;14.60;99.90;;;;;;5025048;28;20206;-80
2021/07/07 04:26:29;;;;;;;7.03;2.90;;;14.60;99.90;;;;;;5015738;28;20206;-84
2021/07/07 04:28:58;;;;;;;7.57;2.80;;;14.70;99.90;;;;;;5005420;28;20517;-79
2021/07/07 04:31:24;;;;;;;6.37;2.90;;;14.70;99.90;;;;;;5005279;28;20199;-80
2021/07/07 04:33:51;;;;;;;4.33;2.53;;;14.80;99.90;;;;;;5005455;28;20229;-80
2021/07/07 04:36:18;;;;;;;6.30;3.13;;;14.80;99.90;;;;;;5004206;28;20252;-83
2021/07/07 04:38:45;;;;;;;6.47;2.70;;;14.90;99.90;;;;;;5003718;28;20873;-84
2021/07/07 04:41:11;;;;;;;5.90;3.23;;;15.00;99.90;;;;;;5005359;28;20237;-83
2021/07/07 04:43:38;;;;;;;4.20;2.70;;;15.00;99.90;;;;;;5007019;28;20203;-83
2021/07/07 04:46:07;;;;;;;8.57;2.70;;;15.00;99.90;;;;;;5010600;28;20588;-80
2021/07/07 04:48:34;;;;;;;6.70;2.67;;;15.10;99.90;;;;;;5013059;28;20203;-81
2021/07/07 04:51:00;;;;;;;6.37;2.80;;;15.10;99.90;;;;;;5035229;28;20198;-88
2021/07/07 04:53:27;;;;;;;5.43;3.17;;;15.20;99.90;;;;;;5032915;28;20213;-86
2021/07/07 04:55:54;;;;;;;5.07;2.77;;;15.20;99.90;;;;;;5031655;28;20508;-83
2021/07/07 04:58:24;;;;;;;6.70;2.80;;;15.30;99.90;;;;;;5015985;28;20207;-82
2021/07/07 05:00:51;;;;;;;5.70;2.87;;;15.30;99.90;;;;;;5011728;28;20227;-85
2021/07/07 05:03:19;;;;;;;7.97;2.57;;;15.40;99.90;;;;;;5032469;28;20202;-80
2021/07/07 05:05:46;;;;;;;7.07;2.70;;;15.50;99.90;;;;;;5033678;28;20213;-78
2021/07/07 05:08:13;;;;;;;6.23;3.00;;;15.70;99.90;;;;;;5032595;28;20758;-84
2021/07/07 05:10:40;;;;;;;3.37;2.00;;;15.90;99.90;;;;;;5032969;28;20543;-82
2021/07/07 05:13:07;;;;;;;5.43;2.63;;;16.10;99.90;;;;;;5032219;28;20203;-81
2021/07/07 05:15:35;;;;;;;5.23;2.80;;;16.40;99.90;;;;;;5025217;28;20206;-82
2021/07/07 05:18:01;;;;;;;5.40;2.43;;;16.70;99.90;;;;;;5011697;28;20207;-80
2021/07/07 05:20:30;;;;;;;7.73;2.80;;;17.00;99.90;;;;;;5010983;28;20231;-78
2021/07/07 05:22:57;;;;;;;7.00;2.00;;;17.40;99.90;;;;;;5011139;28;20225;-81
2021/07/07 05:25:24;;;;;;;4.15;2.10;;;17.70;99.90;;;;;;5019859;28;20203;-80
2021/07/07 05:27:51;;;;;;;5.97;1.95;;;18.20;99.90;;;;;;5011458;28;20290;-85
2021/07/07 05:30:24;;;;;;;4.68;2.45;;;18.50;99.90;;;;;;5011678;28;20238;-85
2021/07/07 05:32:51;;;;;;;4.68;1.80;;;18.80;99.90;;;;;;5011908;28;20207;-86
2021/07/07 05:35:18;;;;;;;7.28;2.15;;;19.20;99.90;;;;;;5030427;28;20226;-85
2021/07/07 05:37:47;;;;;;;3.67;1.73;;;19.50;99.90;;;;;;5031358;28;20218;-80
2021/07/07 05:40:15;;;;;;;4.82;1.65;;;19.90;99.90;;;;;;5030278;28;20209;-80
2021/07/07 05:42:42;;;;;;;4.93;1.95;;;20.10;99.90;;;;;;5031444;28;20197;-81
2021/07/07 05:45:09;;;;;;;4.05;1.80;;;20.40;99.90;;;;;;5012255;28;20215;-88
2021/07/07 05:47:36;;;;;;;5.85;1.60;;;20.70;99.90;;;;;;5010832;28;20206;-89
2021/07/07 05:50:03;;;;;;;5.00;2.13;;;20.90;99.90;;;;;;5024686;28;20210;-83
2021/07/07 05:52:30;;;;;;;4.05;1.60;;;21.20;99.90;;;;;;5029540;28;20207;-79
2021/07/07 05:54:58;;;;;;;5.28;2.25;;;21.40;99.90;;;;;;5026298;28;20595;-77
2021/07/07 05:57:37;;;;;;;5.00;1.90;;;21.50;99.90;;;;;;5024890;28;20612;-83
2021/07/07 06:00:09;;;;;;;3.45;1.70;;;21.70;99.90;;;;;;5013643;28;20260;-88
2021/07/07 06:02:36;;;;;;;6.70;2.00;;;22.00;99.90;;;;;;5026655;28;20250;-91
2021/07/07 06:05:04;;;;;;;4.05;1.58;;;22.10;99.90;;;;;;5029248;28;20281;-87
2021/07/07 06:07:31;;;;;;;7.93;2.22;;;22.40;99.90;;;;;;5028895;28;20209;-81
2021/07/07 06:10:02;;;;;;;6.05;2.08;;;22.60;99.90;;;;;;5027961;28;20209;-84
2021/07/07 06:12:29;;;;;;;5.40;1.80;;;22.60;99.90;;;;;;5030158;28;20209;-90
2021/07/07 06:14:56;;;;;;;9.10;1.98;;;22.70;99.90;;;;;;5029171;28;20199;-81
2021/07/07 06:17:23;;;;;;;6.60;2.08;;;22.80;99.90;;;;;;5028471;28;20327;-85
2021/07/07 06:19:51;;;;;;;3.75;1.55;;;23.00;99.90;;;;;;5028244;28;20612;-87
2021/07/07 06:22:18;;;;;;;5.38;1.70;;;23.00;99.90;;;;;;5027472;28;20241;-82
2021/07/07 06:24:48;;;;;;;7.50;1.88;;;23.00;99.90;;;;;;5028858;28;20503;-81
2021/07/07 06:27:16;;;;;;;4.55;2.03;;;23.10;99.90;;;;;;5014398;28;20904;-86
2021/07/07 06:29:43;;;;;;;3.40;1.90;;;23.20;99.90;;;;;;5009115;28;20305;-82
2021/07/07 06:32:10;;;;;;;4.72;1.65;;;23.10;99.90;;;;;;5007773;28;20212;-81
2021/07/07 06:35:26;;;;;;;2.25;1.50;;;23.20;99.90;;;;;;5026138;28;20229;-79
2021/07/07 06:37:54;;;;;;;7.35;1.90;;;23.30;99.90;;;;;;5025606;28;20918;-80
2021/07/07 06:40:21;;;;;;;4.43;1.83;;;23.20;99.90;;;;;;5028021;28;20290;-81
2021/07/07 06:42:53;;;;;;;8.57;2.25;;;22.90;99.90;;;;;;5026480;28;20313;-79
2021/07/07 06:45:22;;;;;;;5.40;1.70;;;22.80;99.90;;;;;;5027220;28;20195;-79
2021/07/07 06:47:50;;;;;;;3.17;1.42;;;22.50;99.90;;;;;;5027022;28;20566;-84
2021/07/07 06:50:17;;;;;;;4.57;1.80;;;22.40;99.90;;;;;;5027619;28;20202;-84
2021/07/07 06:56:06;;;;;;;4.03;1.75;;;21.90;99.90;;;;;;4962947;28;20191;-89
2021/07/07 06:58:35;;;;;;;5.78;1.95;;;21.70;99.90;;;;;;5025791;28;20809;-86
2021/07/07 07:01:02;;;;;;;4.70;1.75;;;21.50;99.90;;;;;;5028045;28;20222;-87
2021/07/07 07:03:29;;;;;;;8.23;2.45;;;21.20;99.90;;;;;;5007843;28;20238;-83
2021/07/07 07:05:56;;;;;;;6.22;1.90;;;21.10;99.90;;;;;;5006626;28;20214;-86
2021/07/07 07:08:22;;;;;;;4.18;1.95;;;20.90;99.90;;;;;;5006335;28;20207;-81
2021/07/07 07:10:49;;;;;;;3.58;1.60;;;20.80;99.90;;;;;;5007111;28;20211;-79
2021/07/07 07:13:16;;;;;;;4.25;1.60;;;20.70;99.90;;;;;;5006362;28;20213;-84
2021/07/07 07:15:46;;;;;;;7.43;2.00;;;20.80;99.90;;;;;;5006803;28;20191;-81
2021/07/07 07:18:13;;;;;;;5.97;2.00;;;20.90;99.90;;;;;;5006483;28;20211;-88
2021/07/07 07:20:41;;;;;;;4.18;2.40;;;21.10;99.90;;;;;;5005820;28;20242;-79
2021/07/07 07:23:09;;;;;;;2.97;1.80;;;21.30;99.90;;;;;;5004973;28;20350;-86
2021/07/07 07:25:36;;;;;;;3.58;1.50;;;21.30;99.90;;;;;;5008927;28;20202;-90
2021/07/07 07:28:04;;;;;;;3.42;1.50;;;21.50;99.90;;;;;;5007707;28;20616;-87
2021/07/07 07:30:31;;;;;;;3.47;1.83;;;21.80;99.90;;;;;;5008608;28;20294;-86
2021/07/07 07:32:59;;;;;;;5.15;2.20;;;21.90;99.90;;;;;;5006890;28;20203;-79
2021/07/07 07:35:26;;;;;;;3.67;1.60;;;21.90;99.90;;;;;;5010555;28;20211;-86
2021/07/07 07:38:01;;;;;;;5.50;1.80;;;21.90;99.90;;;;;;5027352;28;20316;-85
2021/07/07 07:40:34;;;;;;;3.17;1.70;;;22.10;99.90;;;;;;5026403;28;20209;-85
2021/07/07 07:43:02;;;;;;;4.55;2.00;;;22.40;99.90;;;;;;5025280;28;20229;-81
2021/07/07 07:45:29;;;;;;;2.35;1.42;;;22.30;99.90;;;;;;5012898;28;20207;-82
2021/07/07 07:47:56;;;;;;;7.55;1.65;;;22.60;99.90;;;;;;5005733;28;20671;-81
2021/07/07 07:50:24;;;;;;;6.30;2.17;;;23.00;99.90;;;;;;5005462;28;20199;-81
2021/07/07 07:52:52;;;;;;;4.22;1.70;;;23.40;99.90;;;;;;5006569;28;20291;-86
2021/07/07 07:55:20;;;;;;;6.93;2.10;;;23.90;99.90;;;;;;5016466;28;20877;-80
2021/07/07 07:57:48;;;;;;;5.03;1.85;;;24.40;99.90;;;;;;5024860;28;20246;-81
2021/07/07 08:00:17;;;;;;;6.85;1.88;;;24.70;99.90;;;;;;5023858;28;20983;-80
2021/07/07 08:02:44;;;;;;;5.03;1.67;;;24.80;99.90;;;;;;5024723;28;20287;-84
2021/07/07 08:05:12;;;;;;;3.13;1.58;;;25.20;99.90;;;;;;5024476;28;20209;-83
2021/07/07 08:07:41;;;;;;;4.75;1.60;;;25.40;99.90;;;;;;5024152;28;20203;-83
2021/07/07 08:10:11;;;;;;;4.25;1.67;;;25.50;99.90;;;;;;5009410;28;20207;-85
2021/07/07 08:12:38;;;;;;;7.43;1.67;;;25.40;99.90;;;;;;5003959;28;20206;-81
2021/07/07 08:15:07;;;;;;;4.80;1.67;;;25.00;99.90;;;;;;5003329;28;20210;-78
2021/07/07 08:17:34;;;;;;;5.72;1.70;;;24.70;99.90;;;;;;5016925;28;20305;-87
2021/07/07 08:20:01;;;;;;;5.50;1.63;;;24.40;99.90;;;;;;5025383;28;20525;-81
2021/07/07 08:22:28;;;;;;;10.10;2.05;;;24.70;99.90;;;;;;5024288;28;20233;-82
2021/07/07 08:24:56;;;;;;;4.75;1.80;;;24.80;99.90;;;;;;5025662;28;20198;-83
2021/07/07 08:27:23;;;;;;;5.15;2.13;;;24.70;99.90;;;;;;5024186;28;20213;-85
2021/07/07 08:29:50;;;;;;;4.68;2.10;;;24.70;99.90;;;;;;5023403;28;20602;-83
2021/07/07 08:32:17;;;;;;;5.53;1.80;;;24.50;99.90;;;;;;5026584;28;20603;-86
2021/07/07 08:34:44;;;;;;;6.22;2.33;;;24.40;99.90;;;;;;5028932;28;20213;-86
2021/07/07 08:37:13;;;;;;;5.38;2.40;;;24.30;99.90;;;;;;5027047;28;20790;-80
2021/07/07 08:39:40;;;;;;;4.63;2.30;;;24.00;99.90;;;;;;5027131;28;20206;-85
2021/07/07 08:42:11;;;;;;;7.15;2.20;;;23.60;99.90;;;;;;4915154;28;20321;-87
2021/07/07 08:44:38;;;;;;;6.28;2.22;;;23.30;99.90;;;;;;4976100;28;20191;-85
2021/07/07 08:47:06;;;;;;;6.20;2.10;;;23.00;99.90;;;;;;5027437;28;20297;-88
2021/07/07 08:49:33;;;;;;;4.53;2.15;;;22.80;99.90;;;;;;5031206;28;20206;-85
2021/07/07 08:52:00;;;;;;;5.70;1.95;;;22.70;99.90;;;;;;5030692;28;20209;-85
2021/07/07 08:54:29;;;;;;;6.13;2.22;;;22.90;99.90;;;;;;5028185;28;20202;-84
2021/07/07 08:56:56;;;;;;;4.63;2.30;;;23.30;99.90;;;;;;5028238;28;20226;-85
2021/07/07 08:59:25;;;;;;;3.75;2.28;;;23.80;99.90;;;;;;5028250;28;20967;-85
2021/07/07 09:02:03;;;;;;;4.35;2.00;;;23.90;99.90;;;;;;5017266;28;20222;-84
2021/07/07 09:04:32;;;;;;;5.55;2.22;;;23.90;99.90;;;;;;5007953;28;20202;-82
2021/07/07 09:06:59;;;;;;;8.38;3.45;;;23.70;99.90;;;;;;5027290;28;20247;-84
2021/07/07 09:09:37;;;;;;;7.97;2.45;;;23.70;99.90;;;;;;5027533;28;20758;-82
2021/07/07 09:12:13;;;;;;;3.30;1.80;;;23.60;99.90;;;;;;5026742;28;20206;-85
2021/07/07 09:14:43;;;;;;;3.40;1.70;;;23.50;99.90;;;;;;5023439;28;20218;-84
2021/07/07 09:17:14;;;;;;;6.45;2.25;;;23.40;99.90;;;;;;5007325;28;20249;-83
2021/07/07 09:19:42;;;;;;;6.18;1.98;;;23.30;99.90;;;;;;4907844;28;20823;-84
2021/07/07 09:22:11;;;;;;;5.60;2.33;;;23.40;99.90;;;;;;5005173;28;20234;-84
2021/07/07 09:24:40;;;;;;;3.95;2.10;;;23.30;99.90;;;;;;5008794;28;20695;-81
2021/07/07 09:27:08;;;;;;;5.85;2.22;;;23.20;99.90;;;;;;5026753;28;20210;-86
2021/07/07 09:29:37;;;;;;;4.88;2.15;;;23.30;99.90;;;;;;5027938;28;20518;-86
2021/07/07 09:32:18;;;;;;;4.57;2.22;;;23.20;99.90;;;;;;5031974;28;20195;-86
2021/07/07 09:34:49;;;;;;;6.60;2.50;;;23.10;99.90;;;;;;5029911;28;20244;-83
2021/07/07 09:37:25;;;;;;;5.60;3.10;;;23.30;99.90;;;;;;5029385;28;20281;-87
2021/07/07 09:39:54;;;;;;;2.80;2.00;;;23.50;99.90;;;;;;5029790;28;20210;-85
2021/07/07 09:42:26;;;;;;;4.25;1.85;;;23.80;99.90;;;;;;5027292;28;20229;-84
2021/07/07 09:44:53;;;;;;;3.67;1.92;;;23.90;99.90;;;;;;5028566;28;20272;-82
2021/07/07 09:47:22;;;;;;;4.75;1.88;;;24.00;99.90;;;;;;5027640;28;20206;-86
2021/07/07 09:49:49;;;;;;;3.97;2.03;;;24.10;99.90;;;;;;5017061;28;20211;-81
2021/07/07 09:52:18;;;;;;;6.97;1.73;;;24.00;99.90;;;;;;5010009;28;20203;-81
2021/07/07 09:54:45;;;;;;;6.78;1.90;;;23.80;99.90;;;;;;5019915;28;20233;-81
2021/07/07 09:57:12;;;;;;;4.68;1.80;;;23.50;99.90;;;;;;5027900;28;20495;-89
2021/07/07 09:59:39;;;;;;;6.28;2.30;;;23.30;99.90;;;;;;5030208;28;20206;-82
2021/07/07 10:02:08;;;;;;;4.55;2.30;;;23.00;99.90;;;;;;5028993;28;20225;-85
2021/07/07 10:04:38;;;;;;;3.80;1.85;;;22.90;99.90;;;;;;5031409;28;20194;-86
2021/07/07 10:07:07;;;;;;;5.38;2.50;;;22.80;99.90;;;;;;5031500;28;20273;-83
2021/07/07 10:09:35;;;;;;;6.10;2.40;;;22.60;99.90;;;;;;5035588;28;20195;-84
2021/07/07 10:12:03;;;;;;;4.82;1.83;;;22.40;99.90;;;;;;5035479;28;20215;-79
2021/07/07 10:14:30;;;;;;;5.93;2.35;;;22.40;99.90;;;;;;5030925;28;20541;-80
2021/07/07 10:16:57;;;;;;;5.53;2.80;;;22.50;99.90;;;;;;5030738;28;20210;-82
2021/07/07 10:19:23;;;;;;;4.25;2.65;;;22.80;99.90;;;;;;5025404;28;20219;-87
2021/07/07 10:21:52;;;;;;;5.53;2.13;;;23.20;99.90;;;;;;5019740;28;20215;-85
2021/07/07 10:24:24;;;;;;;7.43;2.17;;;23.50;99.90;;;;;;5027335;28;20213;-82
2021/07/07 10:26:56;;;;;;;5.55;2.30;;;23.90;99.90;;;;;;5028551;28;20217;-82
2021/07/07 10:29:23;;;;;;;4.20;2.03;;;24.30;99.90;;;;;;5027771;28;20201;-86
2021/07/07 10:31:51;;;;;;;10.30;2.35;;;24.50;99.90;;;;;;5028147;28;20206;-82
2021/07/07 10:34:20;;;;;;;5.82;2.08;;;24.80;99.90;;;;;;5027802;28;20221;-78
2021/07/07 10:36:48;;;;;;;5.93;2.15;;;25.00;99.90;;;;;;5007265;28;20210;-85
2021/07/07 10:39:17;;;;;;;3.40;1.58;;;25.10;99.90;;;;;;5026051;28;20506;-84
2021/07/07 10:41:52;;;;;;;3.25;1.35;;;25.30;99.90;;;;;;5026896;28;20555;-84
2021/07/07 10:44:53;;;;;;;4.10;1.95;;;25.40;99.90;;;;;;5025085;28;20599;-78
2021/07/07 10:47:34;;;;;;;5.18;1.90;;;25.50;99.90;;;;;;4997580;28;20246;-79
2021/07/07 10:50:02;;;;;;;5.72;2.00;;;25.60;99.90;;;;;;5007536;28;20203;-81
2021/07/07 10:52:37;;;;;;;2.95;2.10;;;25.20;99.90;;;;;;5019660;28;20577;-77
2021/07/07 10:55:08;;;;;;;5.22;2.15;;;25.00;99.90;;;;;;5005749;28;20611;-82
2021/07/07 10:57:39;;;;;;;3.80;2.03;;;25.00;99.90;;;;;;5005516;28;20238;-79
2021/07/07 11:00:08;;;;;;;3.95;1.80;;;25.20;99.90;;;;;;5005539;28;20214;-80
2021/07/07 11:02:35;;;;;;;4.43;1.92;;;25.20;99.90;;;;;;5004896;28;20278;-80
2021/07/07 11:05:04;;;;;;;3.75;2.13;;;25.20;99.90;;;;;;5006490;28;20219;-86
2021/07/07 11:07:40;;;;;;;3.47;1.80;;;25.50;99.90;;;;;;5006290;28;20222;-81
2021/07/07 11:10:12;;;;;;;4.63;2.10;;;25.40;99.90;;;;;;5016683;28;20974;-79
2021/07/07 11:13:14;;;;;;;3.15;1.75;;;25.50;99.90;;;;;;5025841;28;20213;-79
2021/07/07 11:15:43;;;;;;;3.13;1.60;;;25.30;99.90;;;;;;5013095;28;20215;-88
2021/07/07 11:18:24;;;;;;;4.55;1.77;;;25.10;99.90;;;;;;5006959;28;20195;-79
2021/07/07 11:21:04;;;;;;;5.70;1.63;;;25.20;99.90;;;;;;5024940;28;20272;-83
2021/07/07 11:23:32;;;;;;;2.30;1.00;;;25.50;99.90;;;;;;5028560;28;20226;-83
2021/07/07 11:26:00;;;;;;;5.25;1.88;;;25.80;99.90;;;;;;5028446;28;20206;-84
2021/07/07 11:28:27;;;;;;;5.53;1.50;;;25.80;99.90;;;;;;5029062;28;20199;-84
2021/07/07 11:30:54;;;;;;;3.83;1.60;;;26.10;99.90;;;;;;5037741;28;20221;-78
2021/07/07 11:33:21;;;;;;;5.43;1.58;;;26.20;99.90;;;;;;5030609;28;20378;-82
2021/07/07 11:35:49;;;;;;;3.80;1.40;;;26.40;99.90;;;;;;5005554;28;20191;-85
2021/07/07 11:38:20;;;;;;;4.15;1.55;;;26.50;99.90;;;;;;5003675;28;20627;-77
2021/07/07 11:40:51;;;;;;;3.08;1.60;;;26.50;99.90;;;;;;5010615;28;20214;-81
2021/07/07 11:43:21;;;;;;;5.38;1.40;;;26.60;99.90;;;;;;5023688;28;20273;-80
2021/07/07 11:45:50;;;;;;;3.20;1.58;;;26.70;99.90;;;;;;5024763;28;20290;-86
2021/07/07 11:48:22;;;;;;;2.80;1.48;;;26.70;99.90;;;;;;5023723;28;20198;-81
2021/07/07 11:50:52;;;;;;;6.22;1.70;;;26.80;99.90;;;;;;5023159;28;20209;-78
2021/07/07 11:53:20;;;;;;;3.47;1.40;;;26.90;99.90;;;;;;5023999;28;20197;-85
2021/07/07 11:55:56;;;;;;;6.53;1.40;;;27.00;99.90;;;;;;5024159;28;20199;-80
2021/07/07 11:58:43;;;;;;;3.22;1.20;;;26.90;99.90;;;;;;5023140;28;20230;-81
2021/07/07 12:01:16;;;;;;;6.05;1.50;;;26.70;99.90;;;;;;5008450;28;20243;-79
2021/07/07 12:03:43;;;;;;;6.22;1.67;;;26.50;99.90;;;;;;5004242;28;20230;-79
2021/07/07 12:06:11;;;;;;;5.68;1.70;;;26.30;99.90;;;;;;5007746;28;20214;-80
2021/07/07 12:08:40;;;;;;;3.67;1.50;;;26.40;99.90;;;;;;5024715;28;20774;-87
2021/07/07 12:11:13;;;;;;;4.35;1.30;;;26.60;99.90;;;;;;5023769;28;20603;-78
2021/07/07 12:13:42;;;;;;;5.63;1.67;;;26.70;99.90;;;;;;5023027;28;20221;-79
2021/07/07 12:16:22;;;;;;;3.40;1.20;;;26.50;99.90;;;;;;5022660;28;20190;-81
2021/07/07 12:18:50;;;;;;;7.68;1.98;;;26.50;99.90;;;;;;5025358;28;20289;-86
2021/07/07 12:21:30;;;;;;;4.65;1.42;;;26.40;99.90;;;;;;5023791;28;20214;-87
2021/07/07 12:23:59;;;;;;;2.65;1.30;;;26.30;99.90;;;;;;5026145;28;20241;-84
2021/07/07 12:26:27;;;;;;;5.55;1.50;;;26.30;99.90;;;;;;5026857;28;20191;-87
2021/07/07 12:28:57;;;;;;;6.75;2.05;;;26.20;99.90;;;;;;5025588;28;20297;-83
2021/07/07 12:31:27;;;;;;;5.55;1.67;;;26.20;99.90;;;;;;5024138;28;20202;-81
2021/07/07 12:33:54;;;;;;;5.15;1.88;;;26.10;99.90;;;;;;5024648;28;20519;-81
2021/07/07 12:36:26;;;;;;;5.85;2.20;;;26.10;99.90;;;;;;5020779;28;20261;-83
2021/07/07 12:38:53;;;;;;;5.07;1.67;;;26.30;99.90;;;;;;5008221;28;20195;-81
2021/07/07 12:41:21;;;;;;;5.93;1.98;;;26.30;99.90;;;;;;5007589;28;20214;-82
2021/07/07 12:43:57;;;;;;;5.85;1.58;;;26.30;99.90;;;;;;5006186;28;20227;-84
2021/07/07 12:46:26;;;;;;;4.65;1.80;;;26.30;99.90;;;;;;5023437;28;20523;-84
2021/07/07 12:48:53;;;;;;;6.45;1.48;;;26.30;99.90;;;;;;5025490;28;20210;-79
2021/07/07 12:51:22;;;;;;;6.30;1.83;;;26.30;99.90;;;;;;5022346;28;20207;-85
2021/07/07 12:53:49;;;;;;;5.10;1.92;;;26.30;99.90;;;;;;5024209;28;20207;-81
2021/07/07 12:56:17;;;;;;;4.95;1.75;;;26.30;99.90;;;;;;5021793;28;20694;-85